Aviation Digital Data Service (ADDS)

Output produced by METARs form (1638 UTC 16 June 2019)
found at http://www.aviationweather.gov/metar/data/
 
METAR text: DNEN 161400Z 24006KT 9999 BKN012 FEW020CB 31/25 Q1013 TEMPO 5000 TS
Conditions at: DNEN (ENUGU , NG) observed 1400 UTC 16 June 2019
Temperature: 31.0°C (88°F)
Dewpoint: 25.0°C (77°F) [RH = 71%]
Pressure (altimeter): 29.91 inches Hg (1013.0 mb)
Winds: from the WSW (240 degrees) at 7 MPH (6 knots; 3.1 m/s)
Visibility: 6 or more miles (10+ km)
Ceiling: 1200 feet AGL
Clouds: broken clouds at 1200 feet AGL
few clouds at 2000 feet AGL
Weather: no significant weather observed at this time

METAR text: DNEN 161300Z 28005KT 9999 BKN012 31/24 Q1014 NOSIG
Conditions at: DNEN (ENUGU , NG) observed 1300 UTC 16 June 2019
Temperature: 31.0°C (88°F)
Dewpoint: 24.0°C (75°F) [RH = 66%]
Pressure (altimeter): 29.94 inches Hg (1014.0 mb)
Winds: from the W (280 degrees) at 6 MPH (5 knots; 2.6 m/s)
Visibility: 6 or more miles (10+ km)
Ceiling: 1200 feet AGL
Clouds: broken clouds at 1200 feet AGL
Weather: no significant weather observed at this time

METAR text: DNEN 160100Z 29004KT 6000 FEW008 25/24 Q1014
Conditions at: DNEN (ENUGU , NG) observed 0100 UTC 16 June 2019
Temperature: 25.0°C (77°F)
Dewpoint: 24.0°C (75°F) [RH = 94%]
Pressure (altimeter): 29.94 inches Hg (1014.0 mb)
Winds: from the WNW (290 degrees) at 5 MPH (4 knots; 2.1 m/s)
Visibility: 4 miles ( 6 km)
Ceiling: at least 12,000 feet AGL
Clouds: few clouds at 800 feet AGL
Weather: no significant weather observed at this time

METAR text: DNEN 152300Z 28006KT 8000 FEW008 25/24 Q1015
Conditions at: DNEN (ENUGU , NG) observed 2300 UTC 15 June 2019
Temperature: 25.0°C (77°F)
Dewpoint: 24.0°C (75°F) [RH = 94%]
Pressure (altimeter): 29.97 inches Hg (1015.0 mb)
Winds: from the W (280 degrees) at 7 MPH (6 knots; 3.1 m/s)
Visibility: 5 miles ( 8 km)
Ceiling: at least 12,000 feet AGL
Clouds: few clouds at 800 feet AGL
Weather: no significant weather observed at this time

METAR text: DNEN 151900Z 30003KT 8000 FEW009 FEW019CB 28/24 Q1013 NOSIG
Conditions at: DNEN (ENUGU , NG) observed 1900 UTC 15 June 2019
Temperature: 28.0°C (82°F)
Dewpoint: 24.0°C (75°F) [RH = 79%]
Pressure (altimeter): 29.91 inches Hg (1013.0 mb)
Winds: from the WNW (300 degrees) at 3 MPH (3 knots; 1.5 m/s)
Visibility: 5 miles ( 8 km)
Ceiling: at least 12,000 feet AGL
Clouds: few clouds at 900 feet AGL
few clouds at 1900 feet AGL
Weather: no significant weather observed at this time

METAR text: DNEN 151700Z VRB02KT 9999 TS FEW011 FEW020CB 30/24 Q1012 TEMPO 5000 -TSRA
Conditions at: DNEN (ENUGU , NG) observed 1700 UTC 15 June 2019
Temperature: 30.0°C (86°F)
Dewpoint: 24.0°C (75°F) [RH = 70%]
Pressure (altimeter): 29.88 inches Hg (1012.0 mb)
Winds: variable direction winds at 2 MPH (2 knots; 1.0 m/s)
Visibility: 6 or more miles (10+ km)
Ceiling: at least 12,000 feet AGL
Clouds: few clouds at 1100 feet AGL
few clouds at 2000 feet AGL
Weather: TS  (thunderstorm)

METAR text: DNEN 151400Z 05003KT 9999 SCT011 FEW020CB 30/25 Q1013 TEMPO TS
Conditions at: DNEN (ENUGU , NG) observed 1400 UTC 15 June 2019
Temperature: 30.0°C (86°F)
Dewpoint: 25.0°C (77°F) [RH = 75%]
Pressure (altimeter): 29.91 inches Hg (1013.0 mb)
Winds: from the NE (50 degrees) at 3 MPH (3 knots; 1.5 m/s)
Visibility: 6 or more miles (10+ km)
Ceiling: at least 12,000 feet AGL
Clouds: scattered clouds at 1100 feet AGL
few clouds at 2000 feet AGL
Weather: no significant weather observed at this time

Forecast for: DNEN (ENUGU , NG)
Text: TAF DNEN 160930Z 1612/1718 28010KT 9999 DZ BKN013 FEW021CB
Forecast period: 1200 to 2000 UTC 16 June 2019
Forecast type: FROM: standard forecast or significant change
Winds: from the W (280 degrees) at 12 MPH (10 knots; 5.1 m/s)
Visibility: 6 or more miles 10+ km)
Ceiling: 1300 feet AGL
Clouds: broken clouds at 1300 feet AGL
few clouds at 2100 feet AGL
Weather: DZ  (moderate drizzle)
Text: PROB30
Forecast period: 1500 to 1900 UTC 16 June 2019
Forecast type: TEMPORARY: The following changes expected for less than half the time period
Visibility: missing
Ceiling: unknown
Clouds: missing
Weather: TS  (thunderstorm)
Text: TEMPO 1615/1619 TS
Forecast period: 2000 UTC 16 June 2019 to 1800 UTC 17 June 2019
Forecast type: BECOMING: Conditions expected to become as follows by 2200 UTC 16 June 2019
Winds: variable direction winds at 2 MPH (2 knots; 1.0 m/s)
Visibility: 6 or more miles 10+ km)
Ceiling: at least 12,000 feet AGL
Clouds: scattered clouds at 900 feet AGL
Weather: NSW  (no significant weather)